NEDK1: Verdigris River, Neodesha Ks

Data processed at Fri May 24 2019 23:50


All information presented herein is the property of the government of the United States of America and may be revised or deleted at any time without prior notice.
Dissemination of this information without the expressed written consent of the Public Affairs Office, Tulsa District U.S. Army Corps of Engineers is strictly prohibited.
These data are gathered electronically and, as presented, have not undergone any form of quality control. These data are not guaranteed to be valid or correct.
Go to home page.
Go to station list.
Go to home page.

Upstream stations:

Downstream station:
Previous Day
Next Day
Current Day
    
SHEF ID:       NEDK1     Verdigris River, Neodesha Ks
STATION TYPE:  

               PRECIP     STAGE  RIV-FLOW   VOLTAGE  BAT-LOAD
                   in        ft       cfs      volt      volt
              Ccp-Rev   Ccp-Rev   Ccp-Rev   Ccp-Rev   Ccp-Rev
(US/Central)
05/24 00:00      0.00     37.10     18129     12.73     12.65
05/24 01:00      0.00     37.05     17898     12.65     12.65
05/24 02:00      0.00     37.02     17760     12.65     12.65
05/24 03:00      0.00     36.99     17624     12.65     12.65
05/24 04:00      0.00     36.94     17398     12.65     12.65
05/24 05:00      0.00     36.88     17131     12.65     12.57
05/24 06:00      0.00     36.84     16955     12.65     12.57
05/24 07:00      0.00     36.80     16780     12.65     12.57
05/24 08:00      0.01     36.74     16521     12.65     12.65
05/24 09:00      0.01     36.68     16265     13.13     12.81
05/24 10:00      0.00     36.64     16097     12.97     13.05
05/24 11:00      0.08     36.57     15805     12.73     12.73
05/24 12:00      0.00     36.52     15738     13.68     13.05
05/24 13:00      0.00     36.45     15694     13.53     13.21
05/24 14:00      0.00     36.39     15655     13.60     13.29
05/24 15:00      0.00     36.31     15604     13.76     13.21
05/24 16:00      0.00     36.22     15546     13.21     13.21
05/24 17:00      0.00     36.17     15514     13.13     13.13
05/24 18:00      0.00     36.10     15469     13.05     13.05
05/24 19:00      0.00     35.98     15393     12.89     12.89
05/24 20:00      0.00     35.91     15348     12.73     12.73
05/24 21:00      0.04     35.86     15316     12.73     12.73
05/24 22:00      0.73     35.88     15329     12.73     12.65
05/24 23:00      0.03     35.88     15329     12.73     12.65